createdAt,value
2022-09-22T00:01:27.275Z,7.20
2022-09-22T00:03:57.514Z,7.20
2022-09-22T00:06:27.703Z,7.20
2022-09-22T00:08:57.401Z,7.20
2022-09-22T00:11:30.133Z,7.50
2022-09-22T00:14:03.910Z,7.20
2022-09-22T00:16:45.188Z,7.10
2022-09-22T00:19:16.164Z,7.20
2022-09-22T00:21:44.217Z,7.10
2022-09-22T00:24:11.305Z,7.30
2022-09-22T00:26:39.174Z,6.90
2022-09-22T00:29:09.405Z,7.00
2022-09-22T00:31:38.745Z,7.10
2022-09-22T00:34:06.764Z,6.70
2022-09-22T00:36:34.483Z,7.30
2022-09-22T00:39:01.704Z,7.40
2022-09-22T00:41:36.343Z,7.60
2022-09-22T00:44:21.114Z,7.40
2022-09-22T00:46:57.428Z,7.40
2022-09-22T00:49:40.386Z,7.00
2022-09-22T00:57:11.947Z,6.50
2022-09-22T00:59:41.508Z,6.80
2022-09-22T01:02:09.046Z,6.90
2022-09-22T01:07:05.985Z,7.10
2022-09-22T01:09:33.532Z,7.00
2022-09-22T01:12:02.755Z,7.20
2022-09-22T01:14:51.219Z,7.40
2022-09-22T01:17:50.445Z,7.10
2022-09-22T01:20:38.736Z,7.20
2022-09-22T01:23:38.195Z,7.20
2022-09-22T01:26:42.940Z,7.10
2022-09-22T01:29:36.103Z,7.00
2022-09-22T01:32:23.651Z,6.80
2022-09-22T01:35:05.332Z,7.30
2022-09-22T01:37:55.842Z,6.90
2022-09-22T01:40:51.520Z,7.00
2022-09-22T01:43:27.863Z,7.10
2022-09-22T01:45:55.390Z,6.80
2022-09-22T01:48:26.433Z,7.10
2022-09-22T01:51:12.099Z,7.10
2022-09-22T01:53:44.152Z,7.20
2022-09-22T01:56:15.023Z,7.10
2022-09-22T01:58:47.813Z,7.20
2022-09-22T02:01:18.184Z,6.80
2022-09-22T02:04:13.906Z,7.00
2022-09-22T02:06:47.377Z,7.40
2022-09-22T02:09:21.554Z,7.60
2022-09-22T02:11:48.842Z,7.90
2022-09-22T02:14:16.698Z,7.60
2022-09-22T02:16:43.696Z,7.40
2022-09-22T02:19:13.852Z,7.80
2022-09-22T02:21:44.837Z,7.80
2022-09-22T02:24:33.144Z,8.10
2022-09-22T02:27:09.110Z,7.70
2022-09-22T02:29:40.243Z,8.20
2022-09-22T02:32:11.595Z,8.10
2022-09-22T02:34:39.045Z,9.00
2022-09-22T02:37:21.555Z,8.30
2022-09-22T02:40:04.272Z,8.30
2022-09-22T02:42:45.883Z,8.00
2022-09-22T02:45:22.051Z,8.40
2022-09-22T02:47:57.651Z,8.50
2022-09-22T02:50:27.374Z,8.50
2022-09-22T02:53:02.725Z,8.30
2022-09-22T02:55:30.585Z,8.60
2022-09-22T02:57:57.652Z,8.70
2022-09-22T03:00:24.691Z,8.40
2022-09-22T03:02:51.933Z,9.10
2022-09-22T03:05:19.118Z,8.70
2022-09-22T03:07:46.124Z,7.90
2022-09-22T03:10:13.376Z,8.80
2022-09-22T03:13:09.113Z,9.00
2022-09-22T03:15:31.548Z,8.60
2022-09-22T03:17:58.584Z,8.40
2022-09-22T03:20:25.920Z,8.10
2022-09-22T03:22:53.090Z,8.30
2022-09-22T03:25:20.157Z,8.20
2022-09-22T03:27:48.222Z,8.40
2022-09-22T03:30:15.518Z,8.60
2022-09-22T03:32:42.564Z,8.10
2022-09-22T03:35:09.915Z,8.70
2022-09-22T03:37:37.100Z,8.20
2022-09-22T03:40:04.850Z,8.40
2022-09-22T03:42:32.994Z,8.40
2022-09-22T03:45:00.204Z,8.20
2022-09-22T03:49:54.652Z,8.50
2022-09-22T03:52:21.908Z,8.40
2022-09-22T03:54:48.876Z,8.40
2022-09-22T03:57:16.103Z,8.30
2022-09-22T04:07:07.573Z,8.40
2022-09-22T04:09:34.991Z,8.20
2022-09-22T04:12:02.397Z,8.60
2022-09-22T04:14:30.003Z,8.00
2022-09-22T04:16:56.994Z,8.40
2022-09-22T04:21:56.901Z,8.70
2022-09-22T04:27:17.929Z,8.70
2022-09-22T04:29:39.615Z,8.50
2022-09-22T04:32:06.922Z,8.70
2022-09-22T04:34:34.046Z,8.70
2022-09-22T04:37:01.080Z,8.60
2022-09-22T04:39:28.844Z,8.70
2022-09-22T04:44:23.495Z,8.20
2022-09-22T04:46:50.765Z,8.70
2022-09-22T04:49:18.177Z,8.30
2022-09-22T04:51:45.333Z,9.40
2022-09-22T04:54:14.335Z,8.50
2022-09-22T04:56:42.638Z,8.70
2022-09-22T04:59:10.120Z,8.60
2022-09-22T05:01:37.419Z,8.90
2022-09-22T05:04:04.673Z,8.90
2022-09-22T05:06:31.735Z,8.80
2022-09-22T05:08:59.068Z,9.20
2022-09-22T05:11:26.093Z,9.10
2022-09-22T05:13:53.136Z,8.70
2022-09-22T05:16:20.363Z,8.60
2022-09-22T05:18:50.147Z,9.00
2022-09-22T05:23:46.825Z,9.00
2022-09-22T05:26:13.847Z,9.00
2022-09-22T05:28:41.206Z,9.30
2022-09-22T05:31:08.863Z,9.10
2022-09-22T05:33:36.001Z,9.50
2022-09-22T05:36:03.591Z,9.10
2022-09-22T05:38:31.013Z,8.90
2022-09-22T05:40:58.073Z,9.00
2022-09-22T05:43:25.621Z,9.50
2022-09-22T05:45:52.912Z,9.40
2022-09-22T05:50:47.688Z,9.70
2022-09-22T05:53:15.670Z,9.50
2022-09-22T05:58:12.690Z,9.70
2022-09-22T06:00:41.698Z,11.00
2022-09-22T06:03:08.961Z,9.60
2022-09-22T06:05:38.957Z,9.50
2022-09-22T06:08:06.855Z,9.90
2022-09-22T06:10:38.524Z,10.20
2022-09-22T06:13:07.782Z,9.60
2022-09-22T06:15:36.264Z,10.20
2022-09-22T06:18:07.519Z,10.30
2022-09-22T06:20:35.661Z,10.20
2022-09-22T06:25:30.529Z,10.60
2022-09-22T06:28:04.752Z,10.40
2022-09-22T06:30:33.818Z,10.80
2022-09-22T06:33:01.061Z,10.40
2022-09-22T06:38:06.988Z,10.50
2022-09-22T06:40:38.051Z,10.20
2022-09-22T06:43:12.855Z,10.30
2022-09-22T06:45:41.003Z,10.60
2022-09-22T06:48:10.920Z,11.00
2022-09-22T06:50:41.134Z,11.10
2022-09-22T06:53:11.762Z,11.30
2022-09-22T06:55:41.585Z,11.70
2022-09-22T06:58:09.703Z,11.80
2022-09-22T07:00:37.165Z,12.30
2022-09-22T07:03:13.852Z,12.20
2022-09-22T07:05:43.406Z,11.80
2022-09-22T07:10:38.438Z,12.20
2022-09-22T07:13:06.461Z,12.40
2022-09-22T07:15:36.106Z,12.40
2022-09-22T07:18:07.451Z,12.30
2022-09-22T07:28:05.121Z,12.80
2022-09-22T07:30:36.297Z,12.80
2022-09-22T07:33:03.613Z,13.10
2022-09-22T07:35:31.786Z,13.40
2022-09-22T07:38:03.339Z,14.10
2022-09-22T07:40:31.090Z,13.50
2022-09-22T07:43:00.408Z,14.10
2022-09-22T07:48:13.692Z,13.90
2022-09-22T07:50:40.842Z,14.50
2022-09-22T07:53:07.953Z,14.10
2022-09-22T07:55:36.821Z,14.20
2022-09-22T08:03:01.463Z,14.40
2022-09-22T08:05:29.643Z,15.10
2022-09-22T08:07:58.403Z,14.70
2022-09-22T08:10:26.544Z,15.10
2022-09-22T08:12:55.005Z,14.80
2022-09-22T08:15:26.779Z,15.00
2022-09-22T08:17:58.301Z,14.90
2022-09-22T08:20:30.059Z,14.60
2022-09-22T08:22:58.245Z,14.90
2022-09-22T08:27:56.912Z,15.10
2022-09-22T08:30:26.775Z,15.30
2022-09-22T08:32:54.117Z,15.50
2022-09-22T08:35:21.237Z,14.80
2022-09-22T08:37:50.757Z,15.00
2022-09-22T08:40:23.773Z,15.40
2022-09-22T08:42:54.476Z,15.40
2022-09-22T08:45:35.167Z,15.80
2022-09-22T08:48:38.980Z,15.80
2022-09-22T08:51:29.929Z,15.90
2022-09-22T08:54:02.476Z,15.60
2022-09-22T08:56:55.132Z,15.90
2022-09-22T08:59:24.705Z,15.70
2022-09-22T09:01:54.816Z,15.80
2022-09-22T09:05:04.212Z,16.70
2022-09-22T09:08:13.328Z,16.00
2022-09-22T09:10:57.237Z,16.00
2022-09-22T09:13:50.658Z,16.30
2022-09-22T09:16:51.276Z,16.30
2022-09-22T09:19:37.788Z,16.00
2022-09-22T09:22:27.549Z,17.00
2022-09-22T09:27:57.214Z,16.70
2022-09-22T09:30:25.880Z,16.20
2022-09-22T09:33:02.445Z,16.50
2022-09-22T09:35:48.437Z,16.40
2022-09-22T09:38:18.183Z,16.10
2022-09-22T09:40:55.441Z,16.20
2022-09-22T09:43:23.905Z,16.30
2022-09-22T09:46:06.517Z,16.30
2022-09-22T09:48:59.485Z,16.30
2022-09-22T09:51:28.579Z,16.30
2022-09-22T09:53:58.418Z,15.70
2022-09-22T09:56:31.399Z,15.60
2022-09-22T09:59:22.692Z,15.60
2022-09-22T10:01:52.739Z,16.20
2022-09-22T10:04:37.427Z,15.90
2022-09-22T10:07:22.806Z,15.80
2022-09-22T10:09:51.776Z,15.50
2022-09-22T10:12:27.542Z,16.40
2022-09-22T10:14:59.746Z,16.50
2022-09-22T10:17:41.590Z,16.10
2022-09-22T10:20:33.980Z,16.40
2022-09-22T10:23:21.143Z,16.30
2022-09-22T10:25:50.692Z,15.80
2022-09-22T10:28:21.759Z,15.80
2022-09-22T10:31:05.035Z,15.50
2022-09-22T10:33:34.299Z,15.20
2022-09-22T10:36:12.145Z,15.40
2022-09-22T10:38:42.012Z,15.40
2022-09-22T10:41:13.522Z,16.00
2022-09-22T10:44:15.542Z,15.90
2022-09-22T10:47:14.560Z,15.40
2022-09-22T10:49:53.573Z,15.40
2022-09-22T10:52:26.927Z,15.60
2022-09-22T10:55:12.049Z,15.90
2022-09-22T10:57:58.463Z,15.40
2022-09-22T11:00:27.266Z,15.30
2022-09-22T11:03:22.334Z,15.30
2022-09-22T11:06:31.620Z,15.00
2022-09-22T11:09:51.605Z,14.90
2022-09-22T11:12:56.094Z,14.80
2022-09-22T11:15:37.659Z,14.90
2022-09-22T11:18:04.609Z,14.70
2022-09-22T11:20:36.928Z,15.30
2022-09-22T11:23:29.181Z,15.10
2022-09-22T11:26:22.160Z,15.50
2022-09-22T11:29:06.684Z,16.60
2022-09-22T11:31:41.237Z,15.80
2022-09-22T11:34:45.115Z,15.60
2022-09-22T11:37:42.793Z,16.50
2022-09-22T11:41:06.713Z,16.60
2022-09-22T11:43:55.673Z,16.50
2022-09-22T11:46:38.047Z,16.20
2022-09-22T11:49:28.952Z,16.80
2022-09-22T11:52:02.715Z,16.00
2022-09-22T11:54:46.062Z,16.30
2022-09-22T11:57:17.534Z,15.70
2022-09-22T11:59:48.560Z,15.90
2022-09-22T12:02:29.118Z,15.80
2022-09-22T12:05:11.788Z,15.50
2022-09-22T12:07:50.477Z,15.80
2022-09-22T12:10:38.013Z,15.30
2022-09-22T12:13:14.571Z,15.10
2022-09-22T12:16:18.563Z,15.30
2022-09-22T12:18:58.823Z,15.20
2022-09-22T12:21:31.842Z,15.30
2022-09-22T12:24:07.584Z,15.10
2022-09-22T12:26:37.281Z,15.30
2022-09-22T12:29:16.306Z,15.20
2022-09-22T12:31:48.144Z,14.80
2022-09-22T12:34:25.638Z,15.10
2022-09-22T12:36:59.834Z,15.40
2022-09-22T12:39:31.071Z,15.20
2022-09-22T12:42:07.073Z,15.90
2022-09-22T12:45:18.987Z,16.10
2022-09-22T12:47:52.090Z,16.30
2022-09-22T12:50:24.824Z,16.00
2022-09-22T12:52:52.411Z,16.10
2022-09-22T12:55:28.071Z,16.30
2022-09-22T12:58:01.136Z,16.30
2022-09-22T13:00:38.654Z,16.30
2022-09-22T13:03:25.412Z,16.00
2022-09-22T13:06:23.345Z,16.10
2022-09-22T13:08:53.520Z,15.90
2022-09-22T13:11:40.965Z,16.20
2022-09-22T13:14:46.333Z,16.00
2022-09-22T13:17:44.207Z,15.90
2022-09-22T13:20:30.734Z,16.00
2022-09-22T13:23:05.964Z,16.00
2022-09-22T13:25:33.239Z,15.90
2022-09-22T13:28:13.740Z,16.00
2022-09-22T13:30:42.832Z,16.00
2022-09-22T13:33:25.856Z,16.10
2022-09-22T13:36:06.230Z,16.10
2022-09-22T13:38:37.544Z,16.00
2022-09-22T13:41:12.059Z,15.80
2022-09-22T13:43:43.387Z,16.20
2022-09-22T13:46:27.500Z,16.10
2022-09-22T13:48:57.159Z,15.90
2022-09-22T13:51:26.306Z,15.80
2022-09-22T13:53:56.152Z,14.90
2022-09-22T13:56:25.359Z,15.70
2022-09-22T13:58:57.319Z,15.20
2022-09-22T14:01:27.241Z,14.80
2022-09-22T14:03:55.514Z,15.10
2022-09-22T14:06:30.092Z,14.90
2022-09-22T14:08:57.610Z,14.90
2022-09-22T14:11:29.671Z,14.30
2022-09-22T14:14:00.307Z,13.80
2022-09-22T14:16:47.358Z,13.60
2022-09-22T14:19:22.450Z,13.50
2022-09-22T14:21:57.396Z,13.30
2022-09-22T14:24:25.839Z,13.80
2022-09-22T14:26:54.577Z,13.70
2022-09-22T14:29:26.474Z,13.30
2022-09-22T14:32:00.446Z,13.70
2022-09-22T14:34:31.307Z,13.60
2022-09-22T14:36:59.435Z,13.60
2022-09-22T14:39:36.685Z,13.70
2022-09-22T14:42:11.990Z,13.60
2022-09-22T14:44:50.811Z,13.50
2022-09-22T14:47:25.845Z,13.80
2022-09-22T14:50:19.168Z,14.10
2022-09-22T14:53:01.759Z,13.80
2022-09-22T14:55:39.068Z,14.10
2022-09-22T14:58:27.120Z,14.30
2022-09-22T15:01:16.438Z,14.30
2022-09-22T15:03:54.723Z,14.80
2022-09-22T15:08:52.074Z,14.40
2022-09-22T15:11:19.338Z,14.70
2022-09-22T15:13:50.866Z,14.60
2022-09-22T15:16:40.109Z,14.60
2022-09-22T15:19:13.084Z,14.30
2022-09-22T15:21:46.190Z,14.80
2022-09-22T15:24:15.501Z,14.20
2022-09-22T15:26:44.240Z,14.60
2022-09-22T15:29:11.880Z,13.80
2022-09-22T15:31:39.782Z,14.00
2022-09-22T15:36:39.860Z,12.80
2022-09-22T15:39:16.338Z,11.90
2022-09-22T15:41:44.330Z,11.70
2022-09-22T15:44:14.847Z,11.80
2022-09-22T15:46:43.347Z,11.70
2022-09-22T15:49:22.470Z,11.50
2022-09-22T15:51:49.963Z,11.70
2022-09-22T15:54:23.537Z,11.70
2022-09-22T15:56:53.956Z,11.50
2022-09-22T15:59:24.560Z,11.30
2022-09-22T16:01:55.903Z,11.60
2022-09-22T16:04:23.752Z,11.20
2022-09-22T16:06:56.361Z,11.30
2022-09-22T16:09:23.406Z,10.80
2022-09-22T16:11:51.155Z,11.30
2022-09-22T16:14:18.889Z,11.60
2022-09-22T16:16:45.967Z,11.30
2022-09-22T16:19:13.238Z,11.10
2022-09-22T16:21:48.577Z,12.00
2022-09-22T16:24:16.169Z,11.40
2022-09-22T16:26:43.537Z,11.20
2022-09-22T16:29:11.343Z,11.00
2022-09-22T16:31:41.687Z,11.20
2022-09-22T16:34:09.451Z,11.10
2022-09-22T16:36:39.777Z,10.90
2022-09-22T16:39:07.027Z,11.20
2022-09-22T16:41:36.035Z,10.90
2022-09-22T16:44:06.246Z,11.20
2022-09-22T16:46:34.431Z,10.90
2022-09-22T16:49:16.113Z,11.20
2022-09-22T16:51:47.606Z,10.90
2022-09-22T16:54:15.420Z,11.00
2022-09-22T16:56:46.057Z,11.00
2022-09-22T16:59:21.955Z,11.20
2022-09-22T17:01:50.563Z,11.50
2022-09-22T17:04:21.278Z,10.90
2022-09-22T17:06:49.453Z,10.80
2022-09-22T17:09:17.409Z,11.40
2022-09-22T17:11:45.997Z,11.40
2022-09-22T17:14:15.456Z,11.20
2022-09-22T17:16:49.314Z,11.50
2022-09-22T17:19:19.365Z,11.00
2022-09-22T17:21:52.815Z,11.50
2022-09-22T17:24:20.049Z,11.20
2022-09-22T17:26:49.516Z,11.10
2022-09-22T17:29:24.975Z,11.40
2022-09-22T17:32:14.642Z,11.40
2022-09-22T17:34:41.621Z,10.60
2022-09-22T17:37:14.084Z,11.00
2022-09-22T17:39:42.907Z,10.80
2022-09-22T17:42:11.057Z,11.50
2022-09-22T17:44:38.080Z,11.20
2022-09-22T17:47:23.621Z,11.20
2022-09-22T17:50:09.584Z,11.20
2022-09-22T17:52:55.138Z,10.80
2022-09-22T17:55:25.368Z,11.40
2022-09-22T17:57:52.811Z,11.10
2022-09-22T18:00:21.825Z,11.50
2022-09-22T18:02:54.370Z,11.50
2022-09-22T18:05:26.577Z,11.30
2022-09-22T18:07:58.438Z,10.60
2022-09-22T18:10:30.376Z,11.10
2022-09-22T18:12:57.830Z,10.80
2022-09-22T18:15:26.372Z,10.60
2022-09-22T18:17:58.078Z,10.90
2022-09-22T18:20:27.473Z,10.70
2022-09-22T18:22:57.780Z,10.90
2022-09-22T18:25:25.523Z,10.60
2022-09-22T18:27:53.587Z,9.90
2022-09-22T18:30:20.876Z,10.40
2022-09-22T18:32:48.934Z,10.30
2022-09-22T18:35:16.773Z,10.50
2022-09-22T18:37:44.254Z,10.10
2022-09-22T18:40:13.310Z,10.50
2022-09-22T18:42:44.618Z,10.30
2022-09-22T18:45:14.554Z,9.70
2022-09-22T18:47:43.761Z,9.80
2022-09-22T18:50:12.549Z,10.00
2022-09-22T18:52:43.107Z,9.70
2022-09-22T18:55:11.910Z,9.60
2022-09-22T19:00:07.558Z,9.40
2022-09-22T19:02:35.034Z,9.60
2022-09-22T19:05:02.100Z,9.70
2022-09-22T19:10:13.202Z,9.90
2022-09-22T19:12:43.160Z,9.80
2022-09-22T19:15:13.537Z,9.40
2022-09-22T19:17:44.328Z,9.40
2022-09-22T19:20:17.376Z,9.70
2022-09-22T19:22:47.059Z,9.60
2022-09-22T19:25:14.112Z,9.80
2022-09-22T19:27:41.931Z,9.60
2022-09-22T19:30:10.250Z,9.30
2022-09-22T19:32:38.940Z,9.30
2022-09-22T19:35:08.107Z,9.10
2022-09-22T19:37:35.845Z,8.70
2022-09-22T19:40:03.936Z,8.70
2022-09-22T19:42:31.006Z,9.10
2022-09-22T19:44:58.540Z,9.40
2022-09-22T19:47:25.624Z,9.00
2022-09-22T19:49:52.660Z,9.00
2022-09-22T19:52:19.817Z,9.20
2022-09-22T19:54:47.553Z,8.80
2022-09-22T19:57:14.712Z,8.80
2022-09-22T19:59:41.945Z,8.90
2022-09-22T20:02:16.762Z,8.70
2022-09-22T20:04:43.842Z,8.80
2022-09-22T20:07:14.244Z,9.00
2022-09-22T20:12:11.154Z,8.60
2022-09-22T20:14:38.111Z,8.70
2022-09-22T20:17:07.502Z,8.60
2022-09-22T20:19:40.116Z,9.00
2022-09-22T20:22:27.697Z,9.10
2022-09-22T20:24:58.043Z,8.10
2022-09-22T20:27:27.915Z,8.50
2022-09-22T20:29:57.467Z,8.30
2022-09-22T20:32:31.585Z,8.50
2022-09-22T20:34:59.171Z,8.40
2022-09-22T20:37:26.306Z,8.60
2022-09-22T20:42:21.387Z,8.00
2022-09-22T20:44:49.226Z,8.40
2022-09-22T20:47:18.783Z,8.20
2022-09-22T20:49:51.267Z,8.10
2022-09-22T20:52:20.154Z,7.70
2022-09-22T20:54:48.874Z,8.20
2022-09-22T20:59:45.913Z,7.80
2022-09-22T21:02:15.159Z,8.10
2022-09-22T21:04:42.483Z,7.90
2022-09-22T21:07:11.254Z,8.00
2022-09-22T21:09:57.516Z,7.30
2022-09-22T21:12:30.239Z,7.70
2022-09-22T21:14:59.189Z,7.70
2022-09-22T21:17:32.802Z,8.10
2022-09-22T21:20:00.180Z,7.60
2022-09-22T21:22:28.159Z,7.60
2022-09-22T21:24:56.238Z,7.30
2022-09-22T21:27:25.049Z,7.50
2022-09-22T21:29:53.232Z,7.60
2022-09-22T21:32:20.609Z,7.30
2022-09-22T21:34:48.179Z,7.40
2022-09-22T21:39:42.951Z,7.40
2022-09-22T21:42:10.289Z,7.40
2022-09-22T21:44:37.711Z,7.30
2022-09-22T21:47:04.953Z,7.20
2022-09-22T21:49:32.967Z,7.50
2022-09-22T21:52:01.153Z,7.10
2022-09-22T21:54:28.309Z,7.10
2022-09-22T21:56:56.667Z,7.10
2022-09-22T22:01:51.095Z,7.00
2022-09-22T22:04:18.539Z,7.10
2022-09-22T22:06:46.253Z,6.80
2022-09-22T22:09:20.144Z,7.20
2022-09-22T22:11:50.212Z,7.10
2022-09-22T22:14:19.567Z,7.00
2022-09-22T22:16:52.022Z,7.20
2022-09-22T22:19:21.539Z,6.80
2022-09-22T22:21:50.981Z,7.10
2022-09-22T22:24:42.206Z,7.10
2022-09-22T22:27:10.889Z,6.90
2022-09-22T22:32:08.909Z,6.90
2022-09-22T22:42:05.707Z,8.20
2022-09-22T22:44:32.651Z,7.10
2022-09-22T22:54:22.842Z,6.60
2022-09-22T22:56:51.422Z,6.10
2022-09-22T22:59:18.831Z,6.60
2022-09-22T23:06:45.073Z,7.10
2022-09-22T23:09:14.647Z,6.60
2022-09-22T23:11:42.860Z,6.80
2022-09-22T23:14:11.570Z,6.90
2022-09-22T23:16:45.163Z,7.00
2022-09-22T23:19:17.239Z,7.10
2022-09-22T23:24:16.944Z,6.90
2022-09-22T23:26:45.388Z,6.90
2022-09-22T23:29:12.941Z,7.00
2022-09-22T23:31:40.051Z,6.80
2022-09-22T23:34:07.040Z,7.90
2022-09-22T23:39:04.384Z,7.50
2022-09-22T23:41:33.418Z,6.90
2022-09-22T23:44:00.770Z,7.10
2022-09-22T23:51:24.102Z,6.70
2022-09-22T23:53:51.767Z,7.10
2022-09-22T23:56:19.654Z,6.90
2022-09-22T23:58:47.296Z,6.50
